sensor_id;sensor_type;location;lat;lon;timestamp;P1;durP1;ratioP1;P2;durP2;ratioP2
7903;SDS011;3997;48.416;8.512;2023-05-27T00:01:51;6.72;;;6.10;;
7903;SDS011;3997;48.416;8.512;2023-05-27T00:04:18;7.47;;;6.78;;
7903;SDS011;3997;48.416;8.512;2023-05-27T00:06:44;8.35;;;6.80;;
7903;SDS011;3997;48.416;8.512;2023-05-27T00:09:11;7.30;;;6.60;;
7903;SDS011;3997;48.416;8.512;2023-05-27T00:11:40;7.40;;;6.65;;
7903;SDS011;3997;48.416;8.512;2023-05-27T00:14:07;8.07;;;6.30;;
7903;SDS011;3997;48.416;8.512;2023-05-27T00:16:33;7.35;;;6.50;;
7903;SDS011;3997;48.416;8.512;2023-05-27T00:19:01;8.20;;;6.45;;
7903;SDS011;3997;48.416;8.512;2023-05-27T00:21:28;8.13;;;6.88;;
7903;SDS011;3997;48.416;8.512;2023-05-27T00:23:55;10.05;;;6.55;;
7903;SDS011;3997;48.416;8.512;2023-05-27T00:26:23;8.75;;;6.53;;
7903;SDS011;3997;48.416;8.512;2023-05-27T00:28:52;8.38;;;6.50;;
7903;SDS011;3997;48.416;8.512;2023-05-27T00:31:18;6.95;;;6.25;;
7903;SDS011;3997;48.416;8.512;2023-05-27T00:33:45;6.55;;;5.93;;
7903;SDS011;3997;48.416;8.512;2023-05-27T00:36:12;9.05;;;6.28;;
7903;SDS011;3997;48.416;8.512;2023-05-27T00:38:38;6.95;;;6.30;;
7903;SDS011;3997;48.416;8.512;2023-05-27T00:41:05;7.93;;;6.32;;
7903;SDS011;3997;48.416;8.512;2023-05-27T00:43:33;9.30;;;6.95;;
7903;SDS011;3997;48.416;8.512;2023-05-27T00:46:01;8.98;;;6.47;;
7903;SDS011;3997;48.416;8.512;2023-05-27T00:48:28;7.13;;;6.43;;
7903;SDS011;3997;48.416;8.512;2023-05-27T00:50:55;8.93;;;6.72;;
7903;SDS011;3997;48.416;8.512;2023-05-27T00:53:22;7.15;;;5.82;;
7903;SDS011;3997;48.416;8.512;2023-05-27T00:55:50;7.53;;;5.82;;
7903;SDS011;3997;48.416;8.512;2023-05-27T00:58:18;9.85;;;6.68;;
7903;SDS011;3997;48.416;8.512;2023-05-27T01:00:46;7.03;;;6.30;;
7903;SDS011;3997;48.416;8.512;2023-05-27T01:03:14;6.88;;;6.18;;
7903;SDS011;3997;48.416;8.512;2023-05-27T01:05:41;7.07;;;6.38;;
7903;SDS011;3997;48.416;8.512;2023-05-27T01:08:11;9.90;;;6.85;;
7903;SDS011;3997;48.416;8.512;2023-05-27T01:10:48;8.48;;;6.57;;
7903;SDS011;3997;48.416;8.512;2023-05-27T01:13:18;7.38;;;6.20;;
7903;SDS011;3997;48.416;8.512;2023-05-27T01:15:53;8.43;;;5.93;;
7903;SDS011;3997;48.416;8.512;2023-05-27T01:18:26;8.57;;;6.35;;
7903;SDS011;3997;48.416;8.512;2023-05-27T01:20:55;9.30;;;6.32;;
7903;SDS011;3997;48.416;8.512;2023-05-27T01:23:29;7.72;;;6.05;;
7903;SDS011;3997;48.416;8.512;2023-05-27T01:25:56;10.85;;;6.13;;
7903;SDS011;3997;48.416;8.512;2023-05-27T01:28:23;8.10;;;6.40;;
7903;SDS011;3997;48.416;8.512;2023-05-27T01:30:51;10.75;;;6.75;;
7903;SDS011;3997;48.416;8.512;2023-05-27T01:33:25;9.00;;;6.68;;
7903;SDS011;3997;48.416;8.512;2023-05-27T01:35:57;7.15;;;5.03;;
7903;SDS011;3997;48.416;8.512;2023-05-27T01:38:28;6.82;;;5.43;;
7903;SDS011;3997;48.416;8.512;2023-05-27T01:40:58;8.82;;;5.70;;
7903;SDS011;3997;48.416;8.512;2023-05-27T01:43:26;7.22;;;5.75;;
7903;SDS011;3997;48.416;8.512;2023-05-27T01:45:54;8.65;;;6.43;;
7903;SDS011;3997;48.416;8.512;2023-05-27T01:48:20;11.30;;;6.03;;
7903;SDS011;3997;48.416;8.512;2023-05-27T01:50:47;8.65;;;6.30;;
7903;SDS011;3997;48.416;8.512;2023-05-27T01:53:14;9.30;;;5.65;;
7903;SDS011;3997;48.416;8.512;2023-05-27T01:55:42;9.63;;;5.80;;
7903;SDS011;3997;48.416;8.512;2023-05-27T01:58:09;6.22;;;5.60;;
7903;SDS011;3997;48.416;8.512;2023-05-27T02:00:35;9.77;;;5.78;;
7903;SDS011;3997;48.416;8.512;2023-05-27T02:03:02;8.20;;;5.20;;
7903;SDS011;3997;48.416;8.512;2023-05-27T02:05:29;8.70;;;5.68;;
7903;SDS011;3997;48.416;8.512;2023-05-27T02:07:55;9.57;;;5.75;;
7903;SDS011;3997;48.416;8.512;2023-05-27T02:10:22;7.65;;;5.32;;
7903;SDS011;3997;48.416;8.512;2023-05-27T02:12:50;8.32;;;5.00;;
7903;SDS011;3997;48.416;8.512;2023-05-27T02:15:17;8.23;;;5.28;;
7903;SDS011;3997;48.416;8.512;2023-05-27T02:17:44;8.80;;;5.85;;
7903;SDS011;3997;48.416;8.512;2023-05-27T02:20:11;8.93;;;5.32;;
7903;SDS011;3997;48.416;8.512;2023-05-27T02:22:38;9.30;;;6.30;;
7903;SDS011;3997;48.416;8.512;2023-05-27T02:25:05;8.68;;;5.30;;
7903;SDS011;3997;48.416;8.512;2023-05-27T02:27:32;7.68;;;5.72;;
7903;SDS011;3997;48.416;8.512;2023-05-27T02:30:00;6.10;;;5.10;;
7903;SDS011;3997;48.416;8.512;2023-05-27T02:32:26;7.47;;;5.40;;
7903;SDS011;3997;48.416;8.512;2023-05-27T02:34:53;9.40;;;5.55;;
7903;SDS011;3997;48.416;8.512;2023-05-27T02:37:20;8.23;;;5.80;;
7903;SDS011;3997;48.416;8.512;2023-05-27T02:39:46;8.27;;;5.70;;
7903;SDS011;3997;48.416;8.512;2023-05-27T02:42:13;8.65;;;5.68;;
7903;SDS011;3997;48.416;8.512;2023-05-27T02:44:40;6.85;;;4.97;;
7903;SDS011;3997;48.416;8.512;2023-05-27T02:47:08;8.38;;;5.40;;
7903;SDS011;3997;48.416;8.512;2023-05-27T02:49:34;6.40;;;5.40;;
7903;SDS011;3997;48.416;8.512;2023-05-27T02:52:01;9.30;;;5.78;;
7903;SDS011;3997;48.416;8.512;2023-05-27T02:54:27;8.35;;;5.88;;
7903;SDS011;3997;48.416;8.512;2023-05-27T02:56:54;8.18;;;5.80;;
7903;SDS011;3997;48.416;8.512;2023-05-27T02:59:21;10.00;;;5.60;;
7903;SDS011;3997;48.416;8.512;2023-05-27T03:01:48;10.10;;;5.57;;
7903;SDS011;3997;48.416;8.512;2023-05-27T03:04:16;6.28;;;5.63;;
7903;SDS011;3997;48.416;8.512;2023-05-27T03:06:42;10.15;;;5.78;;
7903;SDS011;3997;48.416;8.512;2023-05-27T03:09:09;7.90;;;6.30;;
7903;SDS011;3997;48.416;8.512;2023-05-27T03:11:36;9.93;;;5.38;;
7903;SDS011;3997;48.416;8.512;2023-05-27T03:14:03;6.88;;;5.65;;
7903;SDS011;3997;48.416;8.512;2023-05-27T03:16:29;9.00;;;5.07;;
7903;SDS011;3997;48.416;8.512;2023-05-27T03:18:56;8.57;;;5.68;;
7903;SDS011;3997;48.416;8.512;2023-05-27T03:21:24;7.50;;;5.70;;
7903;SDS011;3997;48.416;8.512;2023-05-27T03:23:51;8.60;;;5.10;;
7903;SDS011;3997;48.416;8.512;2023-05-27T03:26:18;7.75;;;5.22;;
7903;SDS011;3997;48.416;8.512;2023-05-27T03:28:44;6.25;;;5.32;;
7903;SDS011;3997;48.416;8.512;2023-05-27T03:31:11;7.55;;;5.00;;
7903;SDS011;3997;48.416;8.512;2023-05-27T03:33:38;10.02;;;5.10;;
7903;SDS011;3997;48.416;8.512;2023-05-27T03:36:05;8.00;;;5.15;;
7903;SDS011;3997;48.416;8.512;2023-05-27T03:38:34;9.98;;;5.35;;
7903;SDS011;3997;48.416;8.512;2023-05-27T03:41:01;8.95;;;5.68;;
7903;SDS011;3997;48.416;8.512;2023-05-27T03:43:28;9.25;;;5.70;;
7903;SDS011;3997;48.416;8.512;2023-05-27T03:45:54;10.73;;;6.10;;
7903;SDS011;3997;48.416;8.512;2023-05-27T03:48:21;6.72;;;5.38;;
7903;SDS011;3997;48.416;8.512;2023-05-27T03:50:48;9.88;;;5.95;;
7903;SDS011;3997;48.416;8.512;2023-05-27T03:53:14;9.75;;;5.47;;
7903;SDS011;3997;48.416;8.512;2023-05-27T03:55:42;8.98;;;5.70;;
7903;SDS011;3997;48.416;8.512;2023-05-27T03:58:09;8.25;;;5.03;;
7903;SDS011;3997;48.416;8.512;2023-05-27T04:00:38;9.88;;;5.10;;
7903;SDS011;3997;48.416;8.512;2023-05-27T04:03:05;9.95;;;5.60;;
7903;SDS011;3997;48.416;8.512;2023-05-27T04:05:32;10.65;;;5.90;;
7903;SDS011;3997;48.416;8.512;2023-05-27T04:07:58;7.25;;;5.35;;
7903;SDS011;3997;48.416;8.512;2023-05-27T04:10:26;9.38;;;5.15;;
7903;SDS011;3997;48.416;8.512;2023-05-27T04:12:54;7.97;;;4.88;;
7903;SDS011;3997;48.416;8.512;2023-05-27T04:15:21;8.70;;;5.22;;
7903;SDS011;3997;48.416;8.512;2023-05-27T04:17:48;7.50;;;4.95;;
7903;SDS011;3997;48.416;8.512;2023-05-27T04:20:14;8.45;;;5.20;;
7903;SDS011;3997;48.416;8.512;2023-05-27T04:22:41;12.45;;;5.40;;
7903;SDS011;3997;48.416;8.512;2023-05-27T04:25:09;10.60;;;5.45;;
7903;SDS011;3997;48.416;8.512;2023-05-27T04:27:36;9.05;;;5.28;;
7903;SDS011;3997;48.416;8.512;2023-05-27T04:30:04;10.60;;;5.75;;
7903;SDS011;3997;48.416;8.512;2023-05-27T04:32:32;9.20;;;5.15;;
7903;SDS011;3997;48.416;8.512;2023-05-27T04:35:03;8.63;;;5.18;;
7903;SDS011;3997;48.416;8.512;2023-05-27T04:37:30;9.15;;;5.07;;
7903;SDS011;3997;48.416;8.512;2023-05-27T04:39:57;7.70;;;5.45;;
7903;SDS011;3997;48.416;8.512;2023-05-27T04:42:24;7.78;;;5.45;;
7903;SDS011;3997;48.416;8.512;2023-05-27T04:44:51;9.48;;;5.55;;
7903;SDS011;3997;48.416;8.512;2023-05-27T04:47:19;8.57;;;5.22;;
7903;SDS011;3997;48.416;8.512;2023-05-27T04:49:47;7.28;;;5.00;;
7903;SDS011;3997;48.416;8.512;2023-05-27T04:52:13;8.77;;;5.50;;
7903;SDS011;3997;48.416;8.512;2023-05-27T04:54:40;9.05;;;5.70;;
7903;SDS011;3997;48.416;8.512;2023-05-27T04:57:07;6.22;;;4.88;;
7903;SDS011;3997;48.416;8.512;2023-05-27T04:59:33;11.02;;;5.50;;
7903;SDS011;3997;48.416;8.512;2023-05-27T05:02:25;8.00;;;5.28;;
7903;SDS011;3997;48.416;8.512;2023-05-27T05:04:59;9.20;;;5.40;;
7903;SDS011;3997;48.416;8.512;2023-05-27T05:07:26;10.45;;;5.00;;
7903;SDS011;3997;48.416;8.512;2023-05-27T05:09:53;10.70;;;5.40;;
7903;SDS011;3997;48.416;8.512;2023-05-27T05:12:20;11.45;;;5.25;;
7903;SDS011;3997;48.416;8.512;2023-05-27T05:14:46;8.13;;;5.40;;
7903;SDS011;3997;48.416;8.512;2023-05-27T05:17:13;10.00;;;4.93;;
7903;SDS011;3997;48.416;8.512;2023-05-27T05:19:41;11.80;;;5.45;;
7903;SDS011;3997;48.416;8.512;2023-05-27T05:22:10;9.00;;;5.05;;
7903;SDS011;3997;48.416;8.512;2023-05-27T05:24:37;9.35;;;5.38;;
7903;SDS011;3997;48.416;8.512;2023-05-27T05:27:05;6.57;;;4.68;;
7903;SDS011;3997;48.416;8.512;2023-05-27T05:29:32;7.78;;;4.93;;
7903;SDS011;3997;48.416;8.512;2023-05-27T05:31:59;9.10;;;5.07;;
7903;SDS011;3997;48.416;8.512;2023-05-27T05:34:25;8.05;;;5.05;;
7903;SDS011;3997;48.416;8.512;2023-05-27T05:36:53;8.38;;;4.95;;
7903;SDS011;3997;48.416;8.512;2023-05-27T05:39:20;7.15;;;5.30;;
7903;SDS011;3997;48.416;8.512;2023-05-27T05:41:47;12.18;;;4.78;;
7903;SDS011;3997;48.416;8.512;2023-05-27T05:44:14;10.75;;;4.82;;
7903;SDS011;3997;48.416;8.512;2023-05-27T05:46:41;7.40;;;5.00;;
7903;SDS011;3997;48.416;8.512;2023-05-27T05:49:08;10.40;;;5.25;;
7903;SDS011;3997;48.416;8.512;2023-05-27T05:51:34;8.77;;;5.38;;
7903;SDS011;3997;48.416;8.512;2023-05-27T05:54:02;8.95;;;5.63;;
7903;SDS011;3997;48.416;8.512;2023-05-27T05:56:29;8.15;;;4.75;;
7903;SDS011;3997;48.416;8.512;2023-05-27T05:58:56;7.50;;;5.30;;
7903;SDS011;3997;48.416;8.512;2023-05-27T06:01:23;9.18;;;5.25;;
7903;SDS011;3997;48.416;8.512;2023-05-27T06:03:51;7.93;;;4.88;;
7903;SDS011;3997;48.416;8.512;2023-05-27T06:06:18;10.40;;;5.20;;
7903;SDS011;3997;48.416;8.512;2023-05-27T06:08:45;9.35;;;4.53;;
7903;SDS011;3997;48.416;8.512;2023-05-27T06:11:13;9.43;;;5.10;;
7903;SDS011;3997;48.416;8.512;2023-05-27T06:13:40;11.05;;;5.43;;
7903;SDS011;3997;48.416;8.512;2023-05-27T06:16:07;10.30;;;5.13;;
7903;SDS011;3997;48.416;8.512;2023-05-27T06:18:33;8.50;;;5.03;;
7903;SDS011;3997;48.416;8.512;2023-05-27T06:21:00;10.40;;;5.03;;
7903;SDS011;3997;48.416;8.512;2023-05-27T06:23:26;8.45;;;4.85;;
7903;SDS011;3997;48.416;8.512;2023-05-27T06:25:53;8.15;;;4.70;;
7903;SDS011;3997;48.416;8.512;2023-05-27T06:28:21;9.52;;;4.88;;
7903;SDS011;3997;48.416;8.512;2023-05-27T06:30:48;8.18;;;4.75;;
7903;SDS011;3997;48.416;8.512;2023-05-27T06:33:15;8.20;;;4.28;;
7903;SDS011;3997;48.416;8.512;2023-05-27T06:35:41;7.22;;;4.82;;
7903;SDS011;3997;48.416;8.512;2023-05-27T06:38:09;9.35;;;4.47;;
7903;SDS011;3997;48.416;8.512;2023-05-27T06:40:35;7.72;;;4.25;;
7903;SDS011;3997;48.416;8.512;2023-05-27T06:43:02;5.05;;;4.40;;
7903;SDS011;3997;48.416;8.512;2023-05-27T06:45:30;9.63;;;4.82;;
7903;SDS011;3997;48.416;8.512;2023-05-27T06:47:57;8.50;;;4.43;;
7903;SDS011;3997;48.416;8.512;2023-05-27T06:50:24;9.25;;;4.50;;
7903;SDS011;3997;48.416;8.512;2023-05-27T06:52:51;6.72;;;4.20;;
7903;SDS011;3997;48.416;8.512;2023-05-27T06:55:17;10.63;;;5.10;;
7903;SDS011;3997;48.416;8.512;2023-05-27T06:57:45;8.80;;;5.13;;
7903;SDS011;3997;48.416;8.512;2023-05-27T07:00:12;10.43;;;4.85;;
7903;SDS011;3997;48.416;8.512;2023-05-27T07:02:40;6.72;;;4.47;;
7903;SDS011;3997;48.416;8.512;2023-05-27T07:05:07;11.68;;;5.35;;
7903;SDS011;3997;48.416;8.512;2023-05-27T07:07:34;8.38;;;5.53;;
7903;SDS011;3997;48.416;8.512;2023-05-27T07:10:01;8.65;;;4.78;;
7903;SDS011;3997;48.416;8.512;2023-05-27T07:12:27;7.80;;;5.22;;
7903;SDS011;3997;48.416;8.512;2023-05-27T07:14:54;9.20;;;5.20;;
7903;SDS011;3997;48.416;8.512;2023-05-27T07:17:21;9.13;;;4.82;;
7903;SDS011;3997;48.416;8.512;2023-05-27T07:19:49;8.93;;;5.38;;
7903;SDS011;3997;48.416;8.512;2023-05-27T07:22:16;9.30;;;5.07;;
7903;SDS011;3997;48.416;8.512;2023-05-27T07:24:43;7.78;;;5.05;;
7903;SDS011;3997;48.416;8.512;2023-05-27T07:27:10;12.73;;;5.45;;
7903;SDS011;3997;48.416;8.512;2023-05-27T07:29:37;8.48;;;5.78;;
7903;SDS011;3997;48.416;8.512;2023-05-27T07:32:03;6.60;;;5.32;;
7903;SDS011;3997;48.416;8.512;2023-05-27T07:34:30;7.88;;;6.30;;
7903;SDS011;3997;48.416;8.512;2023-05-27T07:36:58;6.72;;;6.00;;
7903;SDS011;3997;48.416;8.512;2023-05-27T07:39:26;9.20;;;5.47;;
7903;SDS011;3997;48.416;8.512;2023-05-27T07:41:52;7.40;;;6.30;;
7903;SDS011;3997;48.416;8.512;2023-05-27T07:44:19;7.75;;;5.88;;
7903;SDS011;3997;48.416;8.512;2023-05-27T07:46:46;7.63;;;6.25;;
7903;SDS011;3997;48.416;8.512;2023-05-27T07:49:12;6.90;;;6.20;;
7903;SDS011;3997;48.416;8.512;2023-05-27T07:51:39;7.88;;;6.40;;
7903;SDS011;3997;48.416;8.512;2023-05-27T07:54:07;8.25;;;6.07;;
7903;SDS011;3997;48.416;8.512;2023-05-27T07:56:34;8.18;;;6.20;;
7903;SDS011;3997;48.416;8.512;2023-05-27T07:59:01;7.50;;;6.00;;
7903;SDS011;3997;48.416;8.512;2023-05-27T08:01:28;8.77;;;6.55;;
7903;SDS011;3997;48.416;8.512;2023-05-27T08:03:57;10.57;;;6.50;;
7903;SDS011;3997;48.416;8.512;2023-05-27T08:06:24;9.32;;;6.50;;
7903;SDS011;3997;48.416;8.512;2023-05-27T08:08:50;8.10;;;6.45;;
7903;SDS011;3997;48.416;8.512;2023-05-27T08:11:18;10.55;;;6.45;;
7903;SDS011;3997;48.416;8.512;2023-05-27T08:13:45;8.30;;;6.70;;
7903;SDS011;3997;48.416;8.512;2023-05-27T08:16:12;8.63;;;7.25;;
7903;SDS011;3997;48.416;8.512;2023-05-27T08:18:38;7.68;;;6.82;;
7903;SDS011;3997;48.416;8.512;2023-05-27T08:21:05;9.70;;;7.35;;
7903;SDS011;3997;48.416;8.512;2023-05-27T08:23:32;8.20;;;6.72;;
7903;SDS011;3997;48.416;8.512;2023-05-27T08:25:58;9.07;;;6.88;;
7903;SDS011;3997;48.416;8.512;2023-05-27T08:28:27;10.25;;;7.03;;
7903;SDS011;3997;48.416;8.512;2023-05-27T08:30:53;8.52;;;6.60;;
7903;SDS011;3997;48.416;8.512;2023-05-27T08:33:20;8.50;;;7.25;;
7903;SDS011;3997;48.416;8.512;2023-05-27T08:35:48;9.18;;;7.03;;
7903;SDS011;3997;48.416;8.512;2023-05-27T08:38:15;10.35;;;7.57;;
7903;SDS011;3997;48.416;8.512;2023-05-27T08:40:41;9.85;;;7.88;;
7903;SDS011;3997;48.416;8.512;2023-05-27T08:43:08;8.52;;;7.55;;
7903;SDS011;3997;48.416;8.512;2023-05-27T08:45:36;8.35;;;7.55;;
7903;SDS011;3997;48.416;8.512;2023-05-27T08:48:06;8.82;;;7.03;;
7903;SDS011;3997;48.416;8.512;2023-05-27T08:50:34;11.20;;;7.55;;
7903;SDS011;3997;48.416;8.512;2023-05-27T08:53:01;9.77;;;7.72;;
7903;SDS011;3997;48.416;8.512;2023-05-27T08:55:29;7.45;;;6.72;;
7903;SDS011;3997;48.416;8.512;2023-05-27T08:57:57;8.93;;;7.55;;
7903;SDS011;3997;48.416;8.512;2023-05-27T09:00:25;9.10;;;7.15;;
7903;SDS011;3997;48.416;8.512;2023-05-27T09:02:54;8.10;;;7.22;;
7903;SDS011;3997;48.416;8.512;2023-05-27T09:05:21;8.10;;;7.30;;
7903;SDS011;3997;48.416;8.512;2023-05-27T09:07:48;9.30;;;7.60;;
7903;SDS011;3997;48.416;8.512;2023-05-27T09:10:14;8.90;;;7.20;;
7903;SDS011;3997;48.416;8.512;2023-05-27T09:12:42;8.63;;;7.82;;
7903;SDS011;3997;48.416;8.512;2023-05-27T09:15:09;8.77;;;6.35;;
7903;SDS011;3997;48.416;8.512;2023-05-27T09:17:39;8.70;;;7.65;;
7903;SDS011;3997;48.416;8.512;2023-05-27T09:20:08;8.20;;;6.95;;
7903;SDS011;3997;48.416;8.512;2023-05-27T09:22:37;9.63;;;7.30;;
7903;SDS011;3997;48.416;8.512;2023-05-27T09:25:05;8.00;;;7.20;;
7903;SDS011;3997;48.416;8.512;2023-05-27T09:27:32;8.05;;;6.88;;
7903;SDS011;3997;48.416;8.512;2023-05-27T09:30:05;8.55;;;7.75;;
7903;SDS011;3997;48.416;8.512;2023-05-27T09:32:33;8.30;;;6.45;;
7903;SDS011;3997;48.416;8.512;2023-05-27T09:35:00;7.68;;;6.88;;
7903;SDS011;3997;48.416;8.512;2023-05-27T09:37:29;9.05;;;7.22;;
7903;SDS011;3997;48.416;8.512;2023-05-27T09:39:58;8.00;;;7.28;;
7903;SDS011;3997;48.416;8.512;2023-05-27T09:42:25;7.65;;;6.85;;
7903;SDS011;3997;48.416;8.512;2023-05-27T09:44:53;8.15;;;7.38;;
7903;SDS011;3997;48.416;8.512;2023-05-27T09:47:21;8.32;;;7.20;;
7903;SDS011;3997;48.416;8.512;2023-05-27T09:49:49;7.72;;;6.82;;
7903;SDS011;3997;48.416;8.512;2023-05-27T09:52:19;10.02;;;7.20;;
7903;SDS011;3997;48.416;8.512;2023-05-27T09:54:49;7.85;;;7.03;;
7903;SDS011;3997;48.416;8.512;2023-05-27T09:57:17;8.18;;;7.32;;
7903;SDS011;3997;48.416;8.512;2023-05-27T09:59:45;8.32;;;6.85;;
7903;SDS011;3997;48.416;8.512;2023-05-27T10:02:12;8.68;;;7.03;;
7903;SDS011;3997;48.416;8.512;2023-05-27T10:04:43;7.40;;;6.68;;
7903;SDS011;3997;48.416;8.512;2023-05-27T10:07:13;7.65;;;7.05;;
7903;SDS011;3997;48.416;8.512;2023-05-27T10:09:44;7.75;;;6.88;;
7903;SDS011;3997;48.416;8.512;2023-05-27T10:12:12;9.50;;;7.03;;
7903;SDS011;3997;48.416;8.512;2023-05-27T10:14:41;8.63;;;6.95;;
7903;SDS011;3997;48.416;8.512;2023-05-27T10:17:09;6.85;;;6.20;;
7903;SDS011;3997;48.416;8.512;2023-05-27T10:19:36;7.13;;;6.45;;
7903;SDS011;3997;48.416;8.512;2023-05-27T10:22:09;8.60;;;6.45;;
7903;SDS011;3997;48.416;8.512;2023-05-27T10:24:36;6.90;;;6.22;;
7903;SDS011;3997;48.416;8.512;2023-05-27T10:27:05;7.43;;;6.72;;
7903;SDS011;3997;48.416;8.512;2023-05-27T10:29:37;6.95;;;6.22;;
7903;SDS011;3997;48.416;8.512;2023-05-27T10:32:04;7.68;;;6.70;;
7903;SDS011;3997;48.416;8.512;2023-05-27T10:34:34;7.50;;;6.55;;
7903;SDS011;3997;48.416;8.512;2023-05-27T10:37:02;7.22;;;6.35;;
7903;SDS011;3997;48.416;8.512;2023-05-27T10:39:29;7.20;;;6.47;;
7903;SDS011;3997;48.416;8.512;2023-05-27T10:41:56;6.97;;;6.28;;
7903;SDS011;3997;48.416;8.512;2023-05-27T10:44:27;8.10;;;6.20;;
7903;SDS011;3997;48.416;8.512;2023-05-27T10:47:00;8.23;;;7.22;;
7903;SDS011;3997;48.416;8.512;2023-05-27T10:49:27;7.43;;;6.70;;
7903;SDS011;3997;48.416;8.512;2023-05-27T10:52:03;7.10;;;6.50;;
7903;SDS011;3997;48.416;8.512;2023-05-27T10:54:35;7.10;;;6.47;;
7903;SDS011;3997;48.416;8.512;2023-05-27T10:57:02;7.80;;;7.13;;
7903;SDS011;3997;48.416;8.512;2023-05-27T10:59:34;7.68;;;6.88;;
7903;SDS011;3997;48.416;8.512;2023-05-27T11:02:15;7.93;;;6.85;;
7903;SDS011;3997;48.416;8.512;2023-05-27T11:04:42;6.70;;;6.10;;
7903;SDS011;3997;48.416;8.512;2023-05-27T11:07:08;7.28;;;6.65;;
7903;SDS011;3997;48.416;8.512;2023-05-27T11:09:42;7.00;;;6.30;;
7903;SDS011;3997;48.416;8.512;2023-05-27T11:12:12;6.95;;;6.30;;
7903;SDS011;3997;48.416;8.512;2023-05-27T11:14:41;7.47;;;6.78;;
7903;SDS011;3997;48.416;8.512;2023-05-27T11:17:09;7.35;;;6.68;;
7903;SDS011;3997;48.416;8.512;2023-05-27T11:19:37;6.70;;;5.95;;
7903;SDS011;3997;48.416;8.512;2023-05-27T11:22:04;6.78;;;6.15;;
7903;SDS011;3997;48.416;8.512;2023-05-27T11:24:31;7.05;;;6.05;;
7903;SDS011;3997;48.416;8.512;2023-05-27T11:26:58;6.80;;;6.20;;
7903;SDS011;3997;48.416;8.512;2023-05-27T11:29:25;6.97;;;6.28;;
7903;SDS011;3997;48.416;8.512;2023-05-27T11:31:52;7.50;;;6.68;;
7903;SDS011;3997;48.416;8.512;2023-05-27T11:34:20;7.05;;;6.45;;
7903;SDS011;3997;48.416;8.512;2023-05-27T11:36:49;6.85;;;6.15;;
7903;SDS011;3997;48.416;8.512;2023-05-27T11:39:16;6.30;;;5.78;;
7903;SDS011;3997;48.416;8.512;2023-05-27T11:41:47;7.03;;;6.30;;
7903;SDS011;3997;48.416;8.512;2023-05-27T11:44:16;8.73;;;6.78;;
7903;SDS011;3997;48.416;8.512;2023-05-27T11:46:44;6.65;;;6.07;;
7903;SDS011;3997;48.416;8.512;2023-05-27T11:49:12;6.82;;;6.22;;
7903;SDS011;3997;48.416;8.512;2023-05-27T11:51:40;6.95;;;6.45;;
7903;SDS011;3997;48.416;8.512;2023-05-27T11:54:14;6.68;;;6.18;;
7903;SDS011;3997;48.416;8.512;2023-05-27T11:56:43;6.57;;;6.07;;
7903;SDS011;3997;48.416;8.512;2023-05-27T11:59:10;7.90;;;6.47;;
7903;SDS011;3997;48.416;8.512;2023-05-27T12:01:36;10.52;;;6.50;;
7903;SDS011;3997;48.416;8.512;2023-05-27T12:04:03;6.63;;;6.05;;
7903;SDS011;3997;48.416;8.512;2023-05-27T12:06:30;7.82;;;6.35;;
7903;SDS011;3997;48.416;8.512;2023-05-27T12:08:56;7.38;;;6.75;;
7903;SDS011;3997;48.416;8.512;2023-05-27T12:11:25;6.47;;;5.88;;
7903;SDS011;3997;48.416;8.512;2023-05-27T12:13:52;6.30;;;5.80;;
7903;SDS011;3997;48.416;8.512;2023-05-27T12:16:19;6.97;;;5.88;;
7903;SDS011;3997;48.416;8.512;2023-05-27T12:18:46;6.55;;;6.05;;
7903;SDS011;3997;48.416;8.512;2023-05-27T12:21:13;6.93;;;6.22;;
7903;SDS011;3997;48.416;8.512;2023-05-27T12:23:40;7.18;;;6.60;;
7903;SDS011;3997;48.416;8.512;2023-05-27T12:26:07;7.15;;;6.05;;
7903;SDS011;3997;48.416;8.512;2023-05-27T12:28:36;8.00;;;6.60;;
7903;SDS011;3997;48.416;8.512;2023-05-27T12:31:03;6.53;;;5.93;;
7903;SDS011;3997;48.416;8.512;2023-05-27T12:33:30;6.45;;;5.85;;
7903;SDS011;3997;48.416;8.512;2023-05-27T12:35:57;6.70;;;6.10;;
7903;SDS011;3997;48.416;8.512;2023-05-27T12:38:24;6.78;;;6.25;;
7903;SDS011;3997;48.416;8.512;2023-05-27T12:40:51;6.70;;;6.10;;
7903;SDS011;3997;48.416;8.512;2023-05-27T12:43:18;7.55;;;6.13;;
7903;SDS011;3997;48.416;8.512;2023-05-27T12:45:46;6.88;;;6.20;;
7903;SDS011;3997;48.416;8.512;2023-05-27T12:48:13;6.70;;;6.00;;
7903;SDS011;3997;48.416;8.512;2023-05-27T12:50:40;7.05;;;6.35;;
7903;SDS011;3997;48.416;8.512;2023-05-27T12:53:07;6.88;;;6.28;;
7903;SDS011;3997;48.416;8.512;2023-05-27T12:55:35;7.45;;;6.78;;
7903;SDS011;3997;48.416;8.512;2023-05-27T12:58:02;6.88;;;6.32;;
7903;SDS011;3997;48.416;8.512;2023-05-27T13:00:29;7.03;;;6.50;;
7903;SDS011;3997;48.416;8.512;2023-05-27T13:03:00;6.95;;;6.25;;
7903;SDS011;3997;48.416;8.512;2023-05-27T13:05:27;7.45;;;6.75;;
7903;SDS011;3997;48.416;8.512;2023-05-27T13:07:54;6.97;;;6.47;;
7903;SDS011;3997;48.416;8.512;2023-05-27T13:10:22;7.00;;;6.40;;
7903;SDS011;3997;48.416;8.512;2023-05-27T13:12:49;7.68;;;7.03;;
7903;SDS011;3997;48.416;8.512;2023-05-27T13:15:16;7.63;;;6.93;;
7903;SDS011;3997;48.416;8.512;2023-05-27T13:17:43;7.22;;;6.63;;
7903;SDS011;3997;48.416;8.512;2023-05-27T13:20:12;7.20;;;6.55;;
7903;SDS011;3997;48.416;8.512;2023-05-27T13:22:39;7.35;;;6.65;;
7903;SDS011;3997;48.416;8.512;2023-05-27T13:25:06;6.95;;;6.32;;
7903;SDS011;3997;48.416;8.512;2023-05-27T13:27:34;7.38;;;6.65;;
7903;SDS011;3997;48.416;8.512;2023-05-27T13:30:00;7.82;;;7.13;;
7903;SDS011;3997;48.416;8.512;2023-05-27T13:32:28;7.32;;;6.63;;
7903;SDS011;3997;48.416;8.512;2023-05-27T13:34:55;7.32;;;6.57;;
7903;SDS011;3997;48.416;8.512;2023-05-27T13:37:23;7.30;;;6.70;;
7903;SDS011;3997;48.416;8.512;2023-05-27T13:39:50;7.22;;;6.63;;
7903;SDS011;3997;48.416;8.512;2023-05-27T13:42:16;8.00;;;7.32;;
7903;SDS011;3997;48.416;8.512;2023-05-27T13:44:43;7.38;;;6.78;;
7903;SDS011;3997;48.416;8.512;2023-05-27T13:47:10;7.03;;;6.53;;
7903;SDS011;3997;48.416;8.512;2023-05-27T13:49:36;7.82;;;7.13;;
7903;SDS011;3997;48.416;8.512;2023-05-27T13:52:03;6.90;;;6.20;;
7903;SDS011;3997;48.416;8.512;2023-05-27T13:54:31;12.18;;;6.38;;
7903;SDS011;3997;48.416;8.512;2023-05-27T13:56:58;7.05;;;6.38;;
7903;SDS011;3997;48.416;8.512;2023-05-27T13:59:25;6.93;;;6.40;;
7903;SDS011;3997;48.416;8.512;2023-05-27T14:01:51;7.50;;;6.80;;
7903;SDS011;3997;48.416;8.512;2023-05-27T14:04:19;7.50;;;6.63;;
7903;SDS011;3997;48.416;8.512;2023-05-27T14:06:46;7.57;;;6.53;;
7903;SDS011;3997;48.416;8.512;2023-05-27T14:09:13;6.95;;;6.35;;
7903;SDS011;3997;48.416;8.512;2023-05-27T14:11:41;7.97;;;7.15;;
7903;SDS011;3997;48.416;8.512;2023-05-27T14:14:08;7.40;;;6.80;;
7903;SDS011;3997;48.416;8.512;2023-05-27T14:16:34;7.43;;;6.72;;
7903;SDS011;3997;48.416;8.512;2023-05-27T14:19:01;7.00;;;6.45;;
7903;SDS011;3997;48.416;8.512;2023-05-27T14:21:28;7.55;;;6.95;;
7903;SDS011;3997;48.416;8.512;2023-05-27T14:23:54;7.57;;;6.93;;
7903;SDS011;3997;48.416;8.512;2023-05-27T14:26:21;7.65;;;7.05;;
7903;SDS011;3997;48.416;8.512;2023-05-27T14:28:49;7.35;;;6.78;;
7903;SDS011;3997;48.416;8.512;2023-05-27T14:31:16;8.50;;;7.80;;
7903;SDS011;3997;48.416;8.512;2023-05-27T14:33:42;8.00;;;7.20;;
7903;SDS011;3997;48.416;8.512;2023-05-27T14:36:09;7.82;;;7.10;;
7903;SDS011;3997;48.416;8.512;2023-05-27T14:38:36;7.15;;;6.65;;
7903;SDS011;3997;48.416;8.512;2023-05-27T14:41:03;8.40;;;7.20;;
7903;SDS011;3997;48.416;8.512;2023-05-27T14:43:30;7.55;;;6.95;;
7903;SDS011;3997;48.416;8.512;2023-05-27T14:45:58;7.82;;;7.13;;
7903;SDS011;3997;48.416;8.512;2023-05-27T14:48:24;7.75;;;7.05;;
7903;SDS011;3997;48.416;8.512;2023-05-27T14:50:51;7.30;;;6.80;;
7903;SDS011;3997;48.416;8.512;2023-05-27T14:53:18;7.45;;;6.85;;
7903;SDS011;3997;48.416;8.512;2023-05-27T14:55:44;7.85;;;7.05;;
7903;SDS011;3997;48.416;8.512;2023-05-27T14:58:13;8.25;;;7.60;;
7903;SDS011;3997;48.416;8.512;2023-05-27T15:00:40;7.93;;;7.18;;
7903;SDS011;3997;48.416;8.512;2023-05-27T15:03:09;7.85;;;7.20;;
7903;SDS011;3997;48.416;8.512;2023-05-27T15:05:35;8.23;;;7.63;;
7903;SDS011;3997;48.416;8.512;2023-05-27T15:08:02;8.07;;;7.32;;
7903;SDS011;3997;48.416;8.512;2023-05-27T15:10:30;8.07;;;7.43;;
7903;SDS011;3997;48.416;8.512;2023-05-27T15:12:57;8.35;;;7.63;;
7903;SDS011;3997;48.416;8.512;2023-05-27T15:15:24;8.70;;;8.00;;
7903;SDS011;3997;48.416;8.512;2023-05-27T15:17:51;7.93;;;7.25;;